Impacts TAF Board
For situational awareness. Not to be used for flight planning purposes.
IDs:

KBDR - Bridgeport/Sikorsky, CT, US

Issued at 0520 UTC 22 Oct 2021
Updated at 0656 UTC 22 Oct 2021
Potential Impact None Slight Moderate High
Time<<22/19Z 22/20Z 22/21Z 22/22Z 22/23Z 23/00Z 23/01Z 23/02Z 23/03Z 23/04Z 23/05Z 23/06Z 23/07Z>>
Type PRVL PRVL PRVL PRVL PRVL PRVL PRVL PRVL PRVL PRVL PRVL
VIS >6 >6 >6 >6 >6 >6 >6 >6 >6 >6 >6
CIG -- -- -- 60 60 60 60 60 60 60 60
Cover SCT SCT SCT BKN BKN BKN BKN BKN BKN BKN BKN
FltCat VFR VFR VFR VFR VFR VFR VFR VFR VFR VFR VFR
WX -- -- -- -- -- -- -- -- -- -- --
WDir 270 270 270 310 310 340 340 340 340 340 340
WSpd 9 9 9 7 7 6 6 6 6 6 6
WGst -- -- -- -- -- -- -- -- -- -- --
Raw TAF
KBDR 220520Z 2206/2306 21010KT P6SM SCT250
  FM221000 24009KT P6SM SCT090 SCT250
  FM221400 27009KT P6SM FEW040 SCT250
  FM222200 31007KT P6SM BKN060
  FM230000 34006KT P6SM BKN060


METAR Board
Radar Display
Forecast Discussion
For situational awareness. Not to be used for flight planning purposes.